Time;durP1;ratioP1;P1;durP2;ratioP2;P2;SDS_P1;SDS_P2;PMS_P1;PMS_P2;Temp;Humidity;BMP_temperature;BMP_pressure;BME280_temperature;BME280_humidity;BME280_pressure;Samples;Min_cycle;Max_cycle;Signal;HPM_P1;HPM_P2
2022/02/09 00:04:09;;;;;;;7.70;4.23;;;8.60;88.00;;;;;;5030112;28;20917;-72
2022/02/09 00:09:01;;;;;;;12.13;4.70;;;8.50;87.80;;;;;;5029425;28;20975;-73
2022/02/09 00:11:32;;;;;;;12.53;4.90;;;8.50;87.60;;;;;;5029831;28;20591;-72
2022/02/09 00:14:06;;;;;;;10.83;5.00;;;8.40;87.70;;;;;;5028754;28;20439;-72
2022/02/09 00:19:14;;;;;;;13.73;4.50;;;8.30;88.30;;;;;;5029383;28;20533;-73
2022/02/09 00:32:25;;;;;;;8.43;4.60;;;8.40;88.60;;;;;;5029870;28;20467;-71
2022/02/09 00:37:34;;;;;;;10.07;5.07;;;8.50;87.70;;;;;;5029770;28;20546;-71
2022/02/09 01:39:17;;;;;;;10.80;4.63;;;8.50;87.30;;;;;;5032351;28;20200;-73
2022/02/09 01:43:02;;;;;;;10.70;4.37;;;8.50;87.30;;;;;;5032758;28;20440;-72
2022/02/09 01:55:49;;;;;;;8.87;4.00;;;8.50;87.00;;;;;;5032930;28;20493;-71
2022/02/09 01:58:16;;;;;;;7.50;3.70;;;8.50;86.90;;;;;;5030707;28;20419;-70
2022/02/09 02:00:42;;;;;;;6.03;3.50;;;8.50;87.10;;;;;;5032419;28;20464;-71
2022/02/09 02:03:07;;;;;;;10.63;4.20;;;8.50;87.30;;;;;;5031886;28;21302;-70
2022/02/09 02:05:35;;;;;;;6.60;3.20;;;8.50;87.30;;;;;;5027356;28;20451;-72
2022/02/09 02:08:03;;;;;;;6.70;3.67;;;8.60;87.40;;;;;;5032088;28;20272;-70
2022/02/09 02:11:01;;;;;;;6.50;3.50;;;8.60;87.30;;;;;;5030965;28;20621;-71
2022/02/09 02:13:47;;;;;;;9.70;3.60;;;8.60;87.00;;;;;;5031521;28;20460;-72
2022/02/09 02:18:49;;;;;;;5.40;3.93;;;8.70;86.80;;;;;;5033571;28;20420;-72
2022/02/09 02:28:57;;;;;;;6.13;3.83;;;8.60;85.60;;;;;;5033745;28;20517;-72
2022/02/09 02:31:45;;;;;;;7.13;3.97;;;8.60;85.50;;;;;;5033822;28;20427;-72
2022/02/09 02:36:59;;;;;;;5.40;3.13;;;8.60;84.90;;;;;;5035649;28;20494;-71
2022/02/09 02:40:06;;;;;;;8.10;3.57;;;8.60;84.90;;;;;;5032178;28;20448;-71
2022/02/09 03:09:16;;;;;;;6.27;3.20;;;8.30;84.10;;;;;;5020811;28;20454;-72
2022/02/09 03:14:24;;;;;;;5.97;2.90;;;8.40;84.10;;;;;;5031907;28;20770;-73
2022/02/09 03:16:58;;;;;;;4.50;2.87;;;8.40;84.00;;;;;;5031002;28;20640;-72
2022/02/09 03:25:26;;;;;;;9.43;3.63;;;8.50;83.40;;;;;;5030796;28;20516;-72
2022/02/09 03:54:33;;;;;;;5.87;2.50;;;8.40;83.00;;;;;;5030578;28;20931;-72
2022/02/09 03:57:03;;;;;;;4.43;2.87;;;8.40;83.00;;;;;;5028658;28;20428;-73
2022/02/09 03:59:31;;;;;;;3.63;2.30;;;8.40;82.80;;;;;;5027777;28;20500;-72
2022/02/09 04:02:03;;;;;;;5.40;2.63;;;8.40;82.70;;;;;;5028556;28;20431;-73
2022/02/09 04:04:29;;;;;;;5.53;3.30;;;8.40;82.50;;;;;;5030473;28;20431;-72
2022/02/09 04:06:55;;;;;;;5.00;2.43;;;8.40;82.40;;;;;;5029770;28;20420;-71
2022/02/09 04:09:26;;;;;;;4.33;2.37;;;8.50;82.70;;;;;;5028308;28;20530;-72
2022/02/09 04:12:01;;;;;;;4.57;2.77;;;8.50;82.10;;;;;;5030077;28;20470;-70
2022/02/09 04:17:25;;;;;;;3.70;2.70;;;8.60;82.10;;;;;;5028652;28;20415;-71
2022/02/09 04:44:22;;;;;;;4.10;2.00;;;8.60;80.00;;;;;;5033498;28;20422;-71
2022/02/09 04:55:21;;;;;;;3.73;2.50;;;8.70;80.00;;;;;;4991720;28;20445;-72
2022/02/09 04:57:49;;;;;;;5.97;2.80;;;8.80;80.30;;;;;;4982713;28;20473;-72
2022/02/09 05:28:09;;;;;;;6.33;3.20;;;8.30;83.80;;;;;;5033343;28;20787;-71
2022/02/09 05:30:35;;;;;;;6.93;2.67;;;8.30;84.00;;;;;;5032289;28;20442;-73
2022/02/09 05:33:01;;;;;;;7.70;2.90;;;8.30;83.80;;;;;;5032582;28;20428;-71
2022/02/09 05:35:27;;;;;;;6.43;3.10;;;8.20;84.00;;;;;;5032262;28;20177;-72
2022/02/09 05:37:55;;;;;;;8.87;3.40;;;8.20;83.60;;;;;;5031199;28;20424;-72
2022/02/09 05:40:21;;;;;;;5.57;3.30;;;8.20;83.10;;;;;;5032613;28;20483;-71
2022/02/09 05:42:47;;;;;;;7.97;3.40;;;8.20;82.70;;;;;;5032436;28;20456;-72
2022/02/09 05:45:14;;;;;;;7.10;3.00;;;8.30;82.40;;;;;;5030797;28;20180;-72
2022/02/09 05:58:09;;;;;;;7.17;3.43;;;8.30;81.70;;;;;;5031796;28;20858;-72
2022/02/09 06:00:34;;;;;;;11.30;3.00;;;8.30;81.90;;;;;;5032075;28;20440;-72
2022/02/09 06:03:01;;;;;;;8.20;3.30;;;8.40;81.90;;;;;;5031757;28;20499;-72
2022/02/09 06:05:28;;;;;;;9.20;3.20;;;8.40;82.10;;;;;;5025218;28;20303;-72
2022/02/09 06:07:54;;;;;;;7.20;2.90;;;8.30;82.10;;;;;;5028100;28;21059;-73
2022/02/09 06:10:25;;;;;;;4.27;2.80;;;8.30;82.20;;;;;;5031496;28;20502;-73
2022/02/09 06:13:05;;;;;;;6.80;3.30;;;8.30;82.20;;;;;;5031568;28;20511;-71
2022/02/09 06:19:39;;;;;;;9.70;3.60;;;8.30;82.40;;;;;;5030033;28;20785;-73
2022/02/09 06:21:03;;;;;;;6.10;3.20;;;8.30;82.80;;;;;;5031678;28;20486;-71
2022/02/09 06:23:34;;;;;;;5.30;3.13;;;8.40;82.80;;;;;;5029988;28;20424;-71
2022/02/09 06:26:01;;;;;;;8.97;3.70;;;8.40;82.70;;;;;;5032305;28;20185;-72
2022/02/09 06:28:29;;;;;;;7.10;3.33;;;8.40;82.50;;;;;;5032100;28;20935;-72
2022/02/09 06:30:56;;;;;;;8.03;2.97;;;8.40;82.20;;;;;;5028246;28;20605;-73
2022/02/09 06:33:22;;;;;;;6.63;3.17;;;8.40;82.20;;;;;;5030979;28;20489;-72
2022/02/09 06:35:49;;;;;;;7.57;3.30;;;8.40;82.50;;;;;;5026913;28;20432;-71
2022/02/09 06:38:16;;;;;;;7.87;4.13;;;8.40;82.50;;;;;;5031271;28;20215;-74
2022/02/09 06:40:44;;;;;;;9.00;3.40;;;8.30;82.70;;;;;;5031269;28;20482;-71
2022/02/09 06:43:12;;;;;;;7.30;3.20;;;8.30;82.80;;;;;;5031847;28;20412;-72
2022/02/09 06:45:40;;;;;;;7.43;3.90;;;8.30;82.80;;;;;;5031276;28;20518;-73
2022/02/09 06:48:17;;;;;;;4.70;3.07;;;8.20;83.30;;;;;;5031716;28;20435;-71
2022/02/09 06:50:54;;;;;;;6.10;3.60;;;8.30;83.30;;;;;;5030914;28;20439;-71
2022/02/09 06:55:56;;;;;;;4.37;3.30;;;8.40;82.80;;;;;;5031819;28;20431;-71
2022/02/09 06:58:43;;;;;;;12.03;3.77;;;8.40;82.50;;;;;;5022451;28;20432;-72
2022/02/09 07:01:10;;;;;;;5.20;3.40;;;8.40;82.70;;;;;;5033915;28;20479;-73
2022/02/09 07:03:36;;;;;;;8.73;4.70;;;8.40;82.40;;;;;;5033537;28;20439;-72
2022/02/09 07:06:02;;;;;;;6.27;3.20;;;8.30;82.10;;;;;;5023892;28;20442;-72
2022/02/09 07:08:28;;;;;;;5.50;4.43;;;8.30;82.10;;;;;;5033265;28;21041;-72
2022/02/09 07:10:54;;;;;;;12.13;4.13;;;8.20;82.40;;;;;;5035162;28;20444;-71
2022/02/09 07:13:20;;;;;;;6.97;3.67;;;8.20;82.40;;;;;;5031766;28;20219;-72
2022/02/09 07:15:50;;;;;;;7.83;3.77;;;8.20;82.50;;;;;;5030897;28;20462;-72
2022/02/09 07:18:17;;;;;;;13.23;4.20;;;8.10;82.20;;;;;;5030501;28;20439;-72
2022/02/09 07:23:24;;;;;;;9.63;3.60;;;7.90;83.00;;;;;;5031422;28;21099;-72
2022/02/09 07:26:04;;;;;;;9.73;3.60;;;7.90;83.30;;;;;;5028069;28;20589;-73
2022/02/09 07:28:30;;;;;;;8.43;4.60;;;7.80;83.60;;;;;;5030065;28;20528;-73
2022/02/09 07:30:56;;;;;;;8.33;4.13;;;7.80;83.70;;;;;;5029706;28;20436;-71
2022/02/09 07:33:22;;;;;;;5.40;3.10;;;7.80;83.60;;;;;;5030006;28;20428;-72
2022/02/09 07:35:47;;;;;;;6.90;3.60;;;7.70;83.40;;;;;;5021089;28;20416;-71
2022/02/09 07:38:13;;;;;;;6.23;3.83;;;7.70;83.80;;;;;;5024551;28;20252;-73
2022/02/09 07:40:42;;;;;;;10.60;3.90;;;7.60;83.60;;;;;;5029452;28;20682;-70
2022/02/09 07:43:14;;;;;;;12.13;4.40;;;7.50;83.60;;;;;;5030657;28;21297;-71
2022/02/09 07:51:13;;;;;;;12.43;4.27;;;7.30;83.00;;;;;;5025750;28;20435;-72
2022/02/09 07:53:45;;;;;;;14.93;4.80;;;7.20;83.00;;;;;;5030121;28;20471;-72
2022/02/09 07:56:11;;;;;;;8.23;4.40;;;7.20;83.10;;;;;;5029897;28;20585;-72
2022/02/09 07:58:37;;;;;;;10.83;5.20;;;7.10;83.40;;;;;;5028401;28;20896;-72
2022/02/09 08:01:03;;;;;;;13.37;5.17;;;7.10;83.80;;;;;;5029687;28;20205;-72
2022/02/09 08:03:28;;;;;;;11.43;6.00;;;7.00;84.30;;;;;;5029900;28;20453;-72
2022/02/09 08:05:54;;;;;;;17.73;5.30;;;7.00;84.40;;;;;;5030075;28;20651;-71
2022/02/09 08:08:21;;;;;;;11.57;5.67;;;7.10;84.40;;;;;;5029221;28;20200;-72
2022/02/09 08:10:52;;;;;;;11.10;5.43;;;7.10;84.60;;;;;;5029884;28;20240;-71
2022/02/09 08:27:36;;;;;;;6.83;4.37;;;7.20;84.60;;;;;;5031170;28;20431;-71
2022/02/09 08:29:45;;;;;;;7.50;4.73;;;7.20;84.30;;;;;;5029192;28;20836;-72
2022/02/09 08:34:38;;;;;;;6.70;4.20;;;7.20;84.30;;;;;;5029941;28;20949;-71
2022/02/09 08:37:06;;;;;;;7.60;4.03;;;7.20;84.40;;;;;;5024427;28;20551;-72
2022/02/09 08:39:32;;;;;;;9.70;5.40;;;7.30;84.40;;;;;;5028749;28;20998;-71
2022/02/09 08:41:58;;;;;;;8.60;4.73;;;7.30;84.60;;;;;;5022461;28;20432;-72
2022/02/09 08:44:25;;;;;;;8.70;5.13;;;7.30;84.60;;;;;;5029470;28;20420;-72
2022/02/09 08:46:51;;;;;;;13.27;5.50;;;7.30;84.70;;;;;;5029440;28;20200;-71
2022/02/09 08:49:17;;;;;;;8.57;5.10;;;7.40;84.60;;;;;;5029134;28;20977;-72
2022/02/09 08:51:43;;;;;;;9.80;5.20;;;7.50;84.70;;;;;;5027755;28;20450;-70
2022/02/09 08:54:10;;;;;;;8.30;4.60;;;7.50;84.60;;;;;;5022450;28;20583;-72
2022/02/09 08:56:38;;;;;;;7.70;4.90;;;7.60;84.40;;;;;;5027303;28;20412;-72
2022/02/09 08:59:05;;;;;;;9.40;5.10;;;7.70;84.10;;;;;;5028836;28;20475;-71
2022/02/09 09:03:59;;;;;;;10.20;4.30;;;7.80;83.80;;;;;;5023119;28;20424;-70
2022/02/09 09:06:27;;;;;;;7.33;4.70;;;7.90;83.80;;;;;;5027756;28;20467;-71
2022/02/09 10:04:03;;;;;;;4.77;2.53;;;9.70;77.30;;;;;;5026081;28;20836;-77
2022/02/09 10:34:16;;;;;;;6.67;2.70;;;10.50;72.60;;;;;;5026136;28;20446;-72
2022/02/09 10:36:49;;;;;;;5.40;2.60;;;10.40;72.40;;;;;;5030127;28;20438;-73
2022/02/09 10:39:20;;;;;;;5.83;2.80;;;10.40;72.40;;;;;;5030597;28;20989;-73
2022/02/09 10:42:17;;;;;;;5.53;3.03;;;10.50;72.10;;;;;;5024921;28;20763;-72
2022/02/09 10:44:50;;;;;;;8.57;3.10;;;10.70;72.00;;;;;;5031160;28;20515;-72
2022/02/09 10:47:36;;;;;;;9.87;2.97;;;10.90;71.10;;;;;;5029878;28;20467;-73
2022/02/09 10:50:25;;;;;;;10.90;3.63;;;11.30;70.40;;;;;;5030879;28;20467;-73
2022/02/09 10:52:53;;;;;;;6.00;3.13;;;12.00;68.90;;;;;;5023984;28;20420;-72
2022/02/09 10:55:29;;;;;;;10.47;2.73;;;12.60;66.00;;;;;;5031898;28;20452;-72
2022/02/09 10:57:55;;;;;;;8.00;3.20;;;13.00;64.10;;;;;;5031824;28;20408;-73
2022/02/09 11:00:22;;;;;;;6.57;3.60;;;13.30;63.50;;;;;;5032099;28;20441;-73
2022/02/09 11:02:50;;;;;;;11.13;2.90;;;13.80;62.30;;;;;;5038157;28;20438;-72
2022/02/09 11:05:19;;;;;;;8.17;3.30;;;14.30;60.30;;;;;;5038314;28;20429;-73
2022/02/09 11:07:47;;;;;;;8.53;2.90;;;14.80;59.60;;;;;;5031556;28;20439;-71
2022/02/09 11:10:13;;;;;;;4.33;2.87;;;15.20;57.30;;;;;;5028007;28;20474;-72
2022/02/09 11:12:44;;;;;;;11.57;3.50;;;15.20;57.30;;;;;;5029170;28;20416;-72
2022/02/09 11:15:13;;;;;;;7.37;3.13;;;15.30;56.50;;;;;;5030642;28;20443;-72
2022/02/09 11:17:46;;;;;;;8.70;3.10;;;15.50;55.60;;;;;;5030562;28;20427;-74
2022/02/09 11:20:12;;;;;;;6.40;2.67;;;15.60;55.80;;;;;;5026337;28;20474;-72
2022/02/09 11:22:44;;;;;;;4.83;2.57;;;15.90;55.00;;;;;;5030851;28;20423;-73
2022/02/09 11:25:43;;;;;;;4.00;2.60;;;15.90;54.60;;;;;;5031692;28;20898;-70
2022/02/09 11:28:22;;;;;;;6.73;2.90;;;16.10;53.70;;;;;;5027475;28;20455;-73
2022/02/09 11:31:16;;;;;;;6.20;3.40;;;16.30;54.00;;;;;;5029980;28;20475;-73
2022/02/09 11:34:06;;;;;;;6.80;2.80;;;16.50;52.80;;;;;;5028812;28;20433;-73
2022/02/09 11:36:42;;;;;;;9.30;2.73;;;16.60;53.30;;;;;;5029571;28;20784;-72
2022/02/09 11:39:18;;;;;;;6.63;2.70;;;16.80;52.60;;;;;;5029893;28;21081;-73
2022/02/09 11:42:17;;;;;;;7.37;2.87;;;17.00;52.20;;;;;;5024054;28;20457;-71
2022/02/09 11:44:56;;;;;;;7.40;2.80;;;17.50;51.70;;;;;;5030039;28;20799;-71
2022/02/09 12:10:03;;;;;;;8.37;2.90;;;17.20;50.60;;;;;;5029618;28;20526;-72
2022/02/09 12:12:16;;;;;;;5.53;3.73;;;17.10;51.30;;;;;;5030597;28;20414;-73
2022/02/09 12:20:27;;;;;;;8.67;3.83;;;15.70;54.50;;;;;;5029133;28;20450;-70
2022/02/09 12:23:14;;;;;;;6.40;3.83;;;15.30;56.10;;;;;;5030327;28;20424;-72
2022/02/09 12:25:48;;;;;;;8.63;3.80;;;14.90;57.20;;;;;;5028458;28;20419;-72
2022/02/09 12:28:22;;;;;;;5.90;3.30;;;14.60;57.80;;;;;;5029436;28;20431;-73
2022/02/09 12:30:49;;;;;;;6.57;3.60;;;14.50;58.50;;;;;;5028879;28;20498;-72
2022/02/09 12:33:23;;;;;;;12.27;3.63;;;14.40;58.80;;;;;;5029749;28;20428;-72
2022/02/09 12:35:49;;;;;;;10.07;4.07;;;14.50;58.70;;;;;;5029156;28;20509;-72
2022/02/09 12:38:25;;;;;;;7.47;3.40;;;14.30;59.10;;;;;;5028780;28;20424;-72
2022/02/09 12:41:09;;;;;;;6.90;3.90;;;14.40;59.30;;;;;;5027405;28;20452;-73
2022/02/09 12:43:59;;;;;;;11.37;3.50;;;14.40;59.20;;;;;;5028440;28;20420;-72
2022/02/09 12:46:33;;;;;;;5.07;2.80;;;14.40;58.90;;;;;;5028207;28;20523;-72
2022/02/09 12:49:14;;;;;;;9.40;3.27;;;14.50;59.20;;;;;;5027031;28;20472;-72
2022/02/09 12:51:42;;;;;;;6.57;3.53;;;14.60;58.80;;;;;;5027764;28;20421;-73
2022/02/09 12:54:10;;;;;;;7.93;3.30;;;14.60;59.20;;;;;;5028881;28;20432;-72
2022/02/09 12:56:42;;;;;;;8.13;3.10;;;14.60;59.10;;;;;;5028581;28;20478;-72
2022/02/09 12:59:10;;;;;;;6.70;3.17;;;14.50;59.30;;;;;;5030155;28;20538;-70
2022/02/09 13:01:49;;;;;;;6.13;3.43;;;14.60;59.50;;;;;;5033090;28;20416;-72
2022/02/09 13:04:34;;;;;;;6.20;2.93;;;14.70;59.10;;;;;;5026668;28;20424;-72
2022/02/09 13:07:24;;;;;;;4.27;2.40;;;14.90;58.90;;;;;;5032601;28;21139;-73
2022/02/09 13:09:53;;;;;;;6.50;3.13;;;14.90;58.40;;;;;;5031865;28;21070;-72
2022/02/09 13:12:26;;;;;;;7.03;3.20;;;14.80;58.70;;;;;;5032444;28;20432;-72
2022/02/09 13:14:57;;;;;;;8.57;3.40;;;14.80;58.90;;;;;;5032487;28;20723;-71
2022/02/09 13:17:52;;;;;;;4.70;2.67;;;14.90;59.10;;;;;;5032694;28;20416;-73
2022/02/09 13:23:27;;;;;;;11.47;3.60;;;14.60;59.50;;;;;;5032750;28;20462;-73
2022/02/09 13:53:03;;;;;;;10.17;3.30;;;14.80;59.30;;;;;;5029896;28;20459;-72
2022/02/09 14:03:46;;;;;;;5.87;2.80;;;15.00;58.70;;;;;;5026407;28;20417;-71
2022/02/09 14:06:55;;;;;;;11.40;3.03;;;15.00;58.80;;;;;;5025135;28;20410;-71
2022/02/09 14:12:20;;;;;;;3.20;2.37;;;15.00;58.80;;;;;;5031887;28;20487;-72
2022/02/09 14:47:19;;;;;;;7.60;2.83;;;15.30;58.20;;;;;;5029339;28;20422;-73
2022/02/09 14:55:59;;;;;;;6.37;2.80;;;14.80;59.70;;;;;;5033014;28;20938;-72
2022/02/09 15:00:36;;;;;;;6.63;2.73;;;14.70;59.90;;;;;;5030246;28;21174;-72
2022/02/09 15:08:28;;;;;;;6.03;2.53;;;14.70;59.90;;;;;;5029796;28;20476;-72
2022/02/09 15:16:02;;;;;;;4.00;2.27;;;14.70;60.00;;;;;;5028934;28;20195;-72
2022/02/09 15:19:08;;;;;;;3.73;2.10;;;14.60;60.40;;;;;;5029615;28;20273;-71
2022/02/09 15:23:42;;;;;;;7.60;2.83;;;14.50;61.00;;;;;;5028618;28;20501;-71
2022/02/09 15:26:08;;;;;;;5.80;3.03;;;14.40;61.60;;;;;;5028790;28;20432;-71
2022/02/09 15:28:35;;;;;;;3.50;2.30;;;14.30;61.90;;;;;;5026925;28;20436;-72
2022/02/09 15:31:10;;;;;;;5.97;3.10;;;14.20;62.00;;;;;;5029400;28;20288;-72
2022/02/09 15:33:42;;;;;;;12.20;3.00;;;14.10;62.20;;;;;;5027555;28;20561;-72
2022/02/09 15:36:12;;;;;;;6.17;2.57;;;13.90;62.90;;;;;;5027465;28;20408;-72
2022/02/09 15:38:45;;;;;;;8.37;3.03;;;13.90;62.90;;;;;;5029225;28;21275;-72
2022/02/09 15:41:24;;;;;;;5.27;3.00;;;13.90;63.40;;;;;;5029705;28;20945;-72
2022/02/09 15:56:10;;;;;;;14.70;3.43;;;14.00;63.20;;;;;;5029848;28;20427;-73
2022/02/09 16:09:17;;;;;;;4.87;2.53;;;13.30;65.40;;;;;;4994766;28;20564;-71
2022/02/09 16:33:16;;;;;;;6.00;2.67;;;12.60;69.40;;;;;;5011865;28;20463;-73
2022/02/09 16:44:21;;;;;;;7.53;3.77;;;11.90;72.30;;;;;;5033008;28;20469;-72
2022/02/09 16:46:53;;;;;;;7.90;3.40;;;11.80;72.90;;;;;;5026223;28;20903;-72
2022/02/09 17:21:12;;;;;;;6.87;4.03;;;10.20;78.90;;;;;;5031677;28;20482;-72
2022/02/09 17:23:39;;;;;;;8.40;4.33;;;10.10;79.50;;;;;;5039750;28;20416;-72
2022/02/09 17:26:05;;;;;;;9.50;5.50;;;10.00;79.70;;;;;;5038052;28;20871;-73
2022/02/09 17:28:31;;;;;;;7.57;4.10;;;9.90;80.00;;;;;;5024111;28;20639;-72
2022/02/09 17:36:04;;;;;;;7.20;4.40;;;9.80;80.90;;;;;;5035200;28;20443;-73
2022/02/09 17:57:35;;;;;;;9.60;5.57;;;9.40;82.80;;;;;;5025703;28;20789;-72
2022/02/09 18:00:12;;;;;;;11.10;5.50;;;9.40;82.80;;;;;;5030134;28;20953;-71
2022/02/09 18:02:39;;;;;;;10.87;4.90;;;9.30;82.80;;;;;;5021543;28;20431;-73
2022/02/09 18:05:11;;;;;;;16.33;5.90;;;9.20;83.70;;;;;;5029789;28;20505;-72
2022/02/09 18:07:38;;;;;;;9.97;6.00;;;9.20;83.80;;;;;;5029060;28;20478;-74
2022/02/09 18:10:44;;;;;;;8.00;5.67;;;9.20;84.00;;;;;;5026776;28;20483;-72
2022/02/09 18:13:17;;;;;;;15.70;5.93;;;9.10;84.10;;;;;;5022148;28;20478;-73
2022/02/09 18:44:57;;;;;;;10.50;5.50;;;8.60;86.30;;;;;;5029428;28;20203;-72
2022/02/09 19:03:28;;;;;;;10.80;5.30;;;8.40;87.10;;;;;;5023825;28;20432;-72
2022/02/09 19:05:57;;;;;;;10.33;5.97;;;8.40;87.10;;;;;;5029841;28;20474;-73
2022/02/09 19:08:52;;;;;;;10.40;5.90;;;8.30;87.10;;;;;;5028857;28;20416;-73
2022/02/09 19:32:32;;;;;;;14.13;6.07;;;7.90;88.30;;;;;;5028933;28;20432;-74
2022/02/09 19:40:49;;;;;;;12.47;6.13;;;7.80;88.90;;;;;;5022544;28;20450;-74
2022/02/09 19:48:41;;;;;;;10.90;6.60;;;7.70;89.00;;;;;;5029408;28;20453;-74
2022/02/09 19:56:25;;;;;;;15.17;7.57;;;7.70;89.00;;;;;;5028998;28;20416;-74
2022/02/09 19:58:55;;;;;;;14.90;8.63;;;7.80;88.90;;;;;;5029743;28;21521;-75
2022/02/09 20:01:23;;;;;;;15.03;8.93;;;7.70;88.70;;;;;;5028049;28;20950;-74
2022/02/09 20:03:50;;;;;;;14.67;9.30;;;7.70;88.70;;;;;;5027823;28;20436;-74
2022/02/09 20:06:16;;;;;;;16.63;9.50;;;7.70;88.70;;;;;;5029434;28;20427;-75
2022/02/09 20:08:42;;;;;;;23.33;12.50;;;7.70;88.70;;;;;;5025700;28;20955;-74
2022/02/09 20:11:11;;;;;;;24.93;11.90;;;7.70;88.70;;;;;;5029206;28;20447;-75
2022/02/09 20:13:37;;;;;;;14.13;8.40;;;7.60;88.90;;;;;;5026321;28;20456;-74
2022/02/09 20:16:04;;;;;;;31.20;13.03;;;7.50;89.00;;;;;;5029846;28;20444;-72
2022/02/09 20:18:33;;;;;;;38.10;16.13;;;7.50;89.00;;;;;;5028364;28;20435;-74
2022/02/09 20:21:00;;;;;;;20.07;8.83;;;7.50;89.20;;;;;;5029328;28;20431;-74
2022/02/09 20:23:27;;;;;;;14.17;7.50;;;7.50;89.20;;;;;;5032014;28;20423;-73
2022/02/09 20:25:53;;;;;;;17.30;7.60;;;7.50;89.00;;;;;;5018786;28;20942;-74
2022/02/09 20:28:20;;;;;;;27.70;9.40;;;7.40;89.00;;;;;;5023558;28;20421;-73
2022/02/09 20:30:53;;;;;;;11.90;6.57;;;7.40;89.30;;;;;;5029296;28;21266;-75
2022/02/09 20:33:23;;;;;;;11.63;7.10;;;7.40;89.30;;;;;;5029583;28;20790;-73
2022/02/09 20:35:49;;;;;;;17.50;6.83;;;7.40;89.30;;;;;;5030244;28;20534;-71
2022/02/09 20:38:20;;;;;;;11.93;6.80;;;7.30;89.20;;;;;;5029249;28;20435;-72
2022/02/09 20:40:52;;;;;;;14.40;7.03;;;7.30;89.20;;;;;;5026683;28;21062;-74
2022/02/09 20:43:21;;;;;;;14.43;7.07;;;7.30;89.20;;;;;;5029124;28;20467;-75
2022/02/09 20:45:53;;;;;;;16.30;7.17;;;7.20;89.20;;;;;;5033207;28;20499;-73
2022/02/09 20:48:25;;;;;;;22.87;7.60;;;7.20;89.00;;;;;;5028943;28;20420;-73
2022/02/09 20:50:52;;;;;;;12.00;7.53;;;7.20;88.90;;;;;;5029660;28;20851;-75
2022/02/09 20:53:18;;;;;;;16.13;7.00;;;7.10;89.00;;;;;;5027858;28;20424;-75
2022/02/09 20:55:46;;;;;;;12.27;6.13;;;7.10;88.60;;;;;;5025282;28;20807;-76
2022/02/09 20:58:12;;;;;;;11.07;6.70;;;7.00;88.40;;;;;;5030232;28;20423;-73
2022/02/09 21:08:28;;;;;;;10.53;5.43;;;7.00;86.80;;;;;;5025570;28;20426;-74
2022/02/09 21:21:47;;;;;;;12.30;6.50;;;6.90;85.70;;;;;;5030549;28;20505;-75
2022/02/09 21:56:31;;;;;;;15.17;6.63;;;6.40;85.50;;;;;;5039814;28;20403;-74
2022/02/09 22:26:49;;;;;;;8.60;5.50;;;6.00;85.50;;;;;;5030266;28;20423;-74
2022/02/09 22:35:05;;;;;;;12.13;6.10;;;6.00;84.90;;;;;;5032581;28;20519;-71
2022/02/09 22:45:57;;;;;;;17.63;6.17;;;5.90;84.30;;;;;;5027918;28;20415;-71
2022/02/09 22:48:35;;;;;;;9.80;5.73;;;5.90;84.40;;;;;;5025985;28;20424;-73
2022/02/09 22:56:31;;;;;;;10.33;6.20;;;5.80;83.80;;;;;;5028985;28;20485;-72
2022/02/09 22:58:58;;;;;;;8.10;5.80;;;5.80;84.00;;;;;;5028779;28;20421;-73
2022/02/09 23:01:44;;;;;;;12.87;6.37;;;5.80;84.10;;;;;;5029630;28;20431;-73
2022/02/09 23:12:40;;;;;;;11.90;6.00;;;5.70;85.00;;;;;;5030728;28;20415;-70
2022/02/09 23:18:22;;;;;;;15.53;6.27;;;5.70;84.90;;;;;;5026139;28;20446;-71
2022/02/09 23:20:58;;;;;;;13.87;6.60;;;5.60;84.90;;;;;;5029445;28;20231;-72
2022/02/09 23:23:44;;;;;;;14.13;5.87;;;5.60;84.90;;;;;;5030842;28;20424;-73
